This is the latest recevied weather packets stored in our database for station/object WW1TA. If no packets are shown the sender has not sent any weather packets the latest 1 day(s).
| Time | Temp. | Humidity | Pressure | Rain* | Wind** | Luminosity | Snow |
|---|---|---|---|---|---|---|---|
| 1836274839 | 21.11° C | 98% | 1019.4 hPa | 0 mm | 0 m/s | 0 W/m² | - |
| 1836274536 | 21.67° C | 98% | 1019.7 hPa | 0 mm | 0 m/s | 0 W/m² | - |
| 1836274390 | 21.11° C | 98% | 1019.4 hPa | 0 mm | 0 m/s | 0 W/m² | - |
| 1836274235 | 21.11° C | 98% | 1019.6 hPa | 0 mm | 0 m/s | 0 W/m² | - |
| 1836273934 | 21.67° C | 97% | 1019.5 hPa | 0 mm | 0 m/s | 0 W/m² | - |
| 1778051143 | 17.78° C | 90% | 1017.7 hPa | 0 mm | 0.45 m/s, 13° | 0 W/m² | - |
| 1778050840 | 17.78° C | 90% | 1017.7 hPa | 0 mm | 0 m/s | 0 W/m² | - |
| 1778050538 | 17.78° C | 90% | 1017.7 hPa | 0 mm | 0 m/s | 0 W/m² | - |
| 1778050234 | 17.78° C | 90% | 1017.9 hPa | 0 mm | 0 m/s | 0 W/m² | - |
| 1778049931 | 17.78° C | 90% | 1017.8 hPa | 0 mm | 0.45 m/s, 4° | 0 W/m² | - |
| 1778049626 | 17.78° C | 91% | 1017.9 hPa | 0 mm | 0.89 m/s, 9° | 0 W/m² | - |
| 1778049325 | 17.22° C | 92% | 1017.9 hPa | 0 mm | 0 m/s | 0 W/m² | - |
| 1778049022 | 16.67° C | 94% | 1018.1 hPa | 0 mm | 0 m/s | 0 W/m² | - |
| 1778048720 | 16.67° C | 94% | 1017.9 hPa | 0 mm | 0 m/s | 0 W/m² | - |
| 1778048417 | 16.11° C | 94% | 1018.1 hPa | 0 mm | 0 m/s | 0 W/m² | - |
| 1778048113 | 16.11° C | 94% | 1017.8 hPa | 0 mm | 0 m/s | 0 W/m² | - |
| 1778047810 | 16.11° C | 94% | 1017.9 hPa | 0 mm | 0 m/s | 0 W/m² | - |
| 1778047509 | 16.11° C | 94% | 1017.8 hPa | 0 mm | 0 m/s | 0 W/m² | - |
| 1778047206 | 16.11° C | 94% | 1017.9 hPa | 0 mm | 0 m/s | 0 W/m² | - |
| 1778046903 | 16.11° C | 94% | 1017.9 hPa | 0 mm | 0 m/s | 0 W/m² | - |
| 1778046599 | 15.56° C | 93% | 1018 hPa | 0 mm | 0 m/s | 0 W/m² | - |
| 1778046296 | 15.56° C | 93% | 1018 hPa | 0 mm | 0 m/s | 0 W/m² | - |
| 1778045992 | 15.56° C | 93% | 1018.2 hPa | 0 mm | 0 m/s | 0 W/m² | - |
| 1778045690 | 15.56° C | 93% | 1018.4 hPa | 0 mm | 0 m/s | 0 W/m² | - |
| 1778045388 | 15.56° C | 93% | 1018.4 hPa | 0 mm | 0 m/s | 0 W/m² | - |
* Rain latest hour (hover to see other rain measurements)
** Current wind speed in m/s (hover to see current wind gust speed)